Time;durP1;ratioP1;P1;durP2;ratioP2;P2;SDS_P1;SDS_P2;PMS_P1;PMS_P2;Temp;Humidity;BMP_temperature;BMP_pressure;BME280_temperature;BME280_humidity;BME280_pressure;Samples;Min_cycle;Max_cycle;Signal;HPM_P1;HPM_P2
2023/11/03 00:02:03;;;;;;;0.40;0.20;;;;;;;12.14;100.00;96738.94;6145180;23;20223;-81
2023/11/03 00:04:38;;;;;;;0.20;0.20;;;;;;;11.75;100.00;96731.41;6145513;23;20150;-81
2023/11/03 00:07:20;;;;;;;0.20;0.20;;;;;;;11.62;100.00;96750.88;6120715;23;20173;-81
2023/11/03 00:10:00;;;;;;;0.30;0.20;;;;;;;11.32;100.00;96746.06;6123254;23;20192;-81
2023/11/03 00:12:38;;;;;;;0.47;0.27;;;;;;;11.22;100.00;96738.19;6099213;23;20147;-80
2023/11/03 00:15:29;;;;;;;0.20;0.20;;;;;;;11.11;100.00;96752.84;6118166;23;20175;-81
2023/11/03 00:22:28;;;;;;;0.30;0.20;;;;;;;11.01;100.00;96748.47;6117230;23;20178;-82
2023/11/03 00:29:38;;;;;;;0.20;0.20;;;;;;;10.89;100.00;96742.72;6143777;23;20606;-82
2023/11/03 00:32:25;;;;;;;0.20;0.20;;;;;;;10.83;100.00;96743.88;6126121;23;20154;-81
2023/11/03 00:35:09;;;;;;;0.30;0.20;;;;;;;10.76;100.00;96738.91;6075788;23;20178;-81
2023/11/03 00:37:51;;;;;;;0.30;0.30;;;;;;;10.70;100.00;96740.06;6120498;23;20669;-81
2023/11/03 00:40:24;;;;;;;0.20;0.20;;;;;;;10.62;100.00;96735.38;6141467;23;20171;-81
2023/11/03 00:43:00;;;;;;;0.53;0.20;;;;;;;10.50;100.00;96727.75;6137573;23;20164;-81
2023/11/03 00:45:34;;;;;;;0.60;0.30;;;;;;;10.42;100.00;96733.75;6139791;23;20653;-81
2023/11/03 00:48:05;;;;;;;0.40;0.20;;;;;;;10.38;100.00;96735.41;6114155;23;20156;-81
2023/11/03 00:50:52;;;;;;;0.40;0.30;;;;;;;10.35;100.00;96735.22;6079395;23;20163;-81
2023/11/03 00:53:29;;;;;;;0.30;0.30;;;;;;;10.32;100.00;96719.72;6139003;23;20144;-80
2023/11/03 00:56:01;;;;;;;0.83;0.30;;;;;;;10.20;100.00;96732.72;6087889;23;20190;-80
2023/11/03 00:58:30;;;;;;;0.70;0.30;;;;;;;10.12;100.00;96729.56;6111279;23;20172;-81
2023/11/03 01:01:08;;;;;;;0.20;0.20;;;;;;;10.13;100.00;96725.00;6135786;23;20191;-80
2023/11/03 01:03:39;;;;;;;0.30;0.30;;;;;;;10.07;100.00;96736.88;6109237;23;20170;-80
2023/11/03 01:06:12;;;;;;;0.20;0.20;;;;;;;10.08;100.00;96709.00;6133821;23;20183;-80
2023/11/03 01:08:45;;;;;;;0.30;0.20;;;;;;;10.04;100.00;96718.69;6108108;23;20196;-80
2023/11/03 01:11:16;;;;;;;0.40;0.40;;;;;;;10.01;100.00;96704.03;6132332;23;20214;-80
2023/11/03 01:13:48;;;;;;;0.40;0.40;;;;;;;9.97;100.00;96705.69;6109097;23;20210;-80
2023/11/03 01:16:22;;;;;;;0.73;0.40;;;;;;;9.95;100.00;96718.53;6133227;23;20626;-80
2023/11/03 01:18:53;;;;;;;0.73;0.30;;;;;;;9.91;100.00;96693.44;6058895;23;20190;-80
2023/11/03 01:21:34;;;;;;;0.30;0.30;;;;;;;9.81;100.00;96706.13;6106823;23;20168;-80
2023/11/03 01:24:13;;;;;;;0.57;0.40;;;;;;;9.84;100.00;96732.31;6132418;23;20159;-80
2023/11/03 01:26:43;;;;;;;0.30;0.30;;;;;;;9.89;100.00;96703.63;6133175;23;20160;-80
2023/11/03 01:29:12;;;;;;;1.60;0.40;;;;;;;9.85;100.00;96705.28;6108188;23;20195;-80
2023/11/03 01:31:40;;;;;;;0.33;0.30;;;;;;;9.89;100.00;96725.03;6107747;23;20174;-80
2023/11/03 01:34:12;;;;;;;0.30;0.30;;;;;;;9.91;100.00;96719.41;6082275;23;20602;-80
2023/11/03 01:36:42;;;;;;;0.40;0.40;;;;;;;9.91;100.00;96693.44;6131262;23;20195;-80
2023/11/03 01:39:15;;;;;;;0.37;0.37;;;;;;;9.93;100.00;96690.50;6131669;23;20202;-80
2023/11/03 01:41:45;;;;;;;1.60;0.30;;;;;;;9.87;100.00;96684.41;6131209;23;20168;-80
2023/11/03 01:44:13;;;;;;;0.57;0.30;;;;;;;9.89;100.00;96703.63;6104862;23;20187;-80
2023/11/03 01:46:41;;;;;;;0.40;0.40;;;;;;;9.93;100.00;96701.19;6130024;23;20168;-80
2023/11/03 01:49:13;;;;;;;0.30;0.30;;;;;;;9.89;100.00;96689.50;6105685;23;20171;-79
2023/11/03 01:51:52;;;;;;;0.40;0.40;;;;;;;9.91;100.00;96706.03;6083118;23;20171;-79
2023/11/03 01:54:24;;;;;;;1.37;0.60;;;;;;;9.92;100.00;96696.94;6130123;23;20163;-79
2023/11/03 01:56:56;;;;;;;1.27;0.40;;;;;;;9.88;100.00;96671.84;6130597;23;20214;-80
2023/11/03 01:59:29;;;;;;;2.10;0.80;;;;;;;9.83;100.00;96682.59;6104543;23;20174;-80
2023/11/03 02:02:01;;;;;;;1.33;0.50;;;;;;;9.87;100.00;96686.28;6130590;23;20645;-80
2023/11/03 02:04:33;;;;;;;0.53;0.50;;;;;;;9.87;100.00;96687.09;6131362;23;20234;-80
2023/11/03 02:07:07;;;;;;;0.53;0.40;;;;;;;9.87;100.00;96680.94;6131462;23;20168;-80
2023/11/03 02:09:35;;;;;;;1.20;0.50;;;;;;;9.82;100.00;96655.06;6105330;23;20634;-80
2023/11/03 02:12:09;;;;;;;0.50;0.50;;;;;;;9.64;100.00;96645.13;6130960;23;20156;-80
2023/11/03 02:14:38;;;;;;;0.70;0.50;;;;;;;9.67;100.00;96674.75;6082115;23;20172;-80
2023/11/03 02:17:13;;;;;;;0.60;0.50;;;;;;;9.72;100.00;96671.22;6130935;23;20261;-80
2023/11/03 02:19:48;;;;;;;0.70;0.70;;;;;;;9.68;100.00;96654.97;6130993;23;20171;-80
2023/11/03 02:22:19;;;;;;;0.60;0.50;;;;;;;9.64;100.00;96647.78;6105405;23;20164;-79
2023/11/03 02:24:49;;;;;;;0.80;0.50;;;;;;;9.69;100.00;96669.13;6105165;23;20178;-80
2023/11/03 02:27:20;;;;;;;0.70;0.50;;;;;;;9.72;100.00;96665.88;6130737;23;20253;-79
2023/11/03 02:29:52;;;;;;;0.73;0.70;;;;;;;9.72;100.00;96647.16;6106457;23;20148;-80
2023/11/03 02:32:30;;;;;;;0.67;0.67;;;;;;;9.75;100.00;96651.16;6082361;23;20525;-80
2023/11/03 02:35:04;;;;;;;1.00;0.70;;;;;;;9.78;100.00;96647.91;6131059;23;20172;-80
2023/11/03 02:37:36;;;;;;;1.17;0.83;;;;;;;9.78;100.00;96631.84;6130435;23;20705;-79
2023/11/03 02:40:07;;;;;;;0.97;0.90;;;;;;;9.77;100.00;96607.00;6103551;23;20546;-79
2023/11/03 02:42:36;;;;;;;0.90;0.90;;;;;;;9.85;100.00;96645.66;6102879;23;20172;-80
2023/11/03 02:45:09;;;;;;;1.03;0.90;;;;;;;9.85;100.00;96648.31;6129961;23;20159;-80
2023/11/03 02:47:41;;;;;;;0.90;0.90;;;;;;;9.82;100.00;96630.19;6130198;23;20159;-79
2023/11/03 02:50:10;;;;;;;0.70;0.70;;;;;;;9.87;100.00;96630.94;6129550;23;20219;-79
2023/11/03 02:52:43;;;;;;;0.97;0.80;;;;;;;9.85;100.00;96643.78;6080536;23;20171;-80
2023/11/03 02:55:25;;;;;;;1.17;0.80;;;;;;;9.88;100.00;96602.31;6129788;23;20159;-79
2023/11/03 02:57:55;;;;;;;1.37;0.87;;;;;;;9.83;100.00;96567.63;6129042;23;20669;-79
2023/11/03 03:00:26;;;;;;;0.60;0.60;;;;;;;9.80;100.00;96603.72;6129801;23;20598;-80
2023/11/03 03:02:54;;;;;;;1.10;0.80;;;;;;;9.83;100.00;96621.09;6104560;23;20172;-79
2023/11/03 03:05:24;;;;;;;0.83;0.80;;;;;;;9.79;100.00;96566.59;6104458;23;20193;-79
2023/11/03 03:07:54;;;;;;;0.70;0.70;;;;;;;9.75;100.00;96585.13;6129050;23;20167;-79
2023/11/03 03:10:24;;;;;;;1.13;1.00;;;;;;;9.75;100.00;96624.41;6129062;23;20155;-79
2023/11/03 03:12:52;;;;;;;1.57;0.80;;;;;;;9.76;100.00;96640.16;6128386;23;20178;-79
2023/11/03 03:15:21;;;;;;;1.03;0.80;;;;;;;9.73;100.00;96603.31;6128754;23;20614;-79
2023/11/03 03:17:49;;;;;;;0.83;0.83;;;;;;;9.49;100.00;96583.81;6129384;23;20191;-79
2023/11/03 03:20:20;;;;;;;1.00;0.83;;;;;;;9.53;100.00;96611.56;6128605;23;20172;-79
2023/11/03 03:22:48;;;;;;;0.63;0.63;;;;;;;9.55;100.00;96633.47;6128050;23;20167;-79
2023/11/03 03:25:16;;;;;;;0.90;0.90;;;;;;;9.58;100.00;96651.59;6103070;23;20191;-79
2023/11/03 03:27:53;;;;;;;1.70;1.60;;;;;;;9.62;100.00;96640.06;6128504;23;20156;-79
2023/11/03 03:30:20;;;;;;;2.17;2.03;;;;;;;9.64;100.00;96632.56;6126552;23;20530;-79
2023/11/03 03:32:48;;;;;;;2.30;1.43;;;;;;;9.58;100.00;96632.88;6128104;23;20668;-79
2023/11/03 03:35:17;;;;;;;1.27;1.17;;;;;;;9.60;100.00;96647.56;6128837;23;20167;-79
2023/11/03 03:37:47;;;;;;;1.27;0.90;;;;;;;9.64;100.00;96661.16;6097821;23;20204;-79
2023/11/03 03:40:19;;;;;;;0.90;0.80;;;;;;;9.62;100.00;96616.00;6122240;23;20172;-79
2023/11/03 03:42:47;;;;;;;1.13;0.60;;;;;;;9.60;100.00;96602.13;6099193;23;20164;-79
2023/11/03 03:45:16;;;;;;;1.43;0.50;;;;;;;9.48;100.00;96622.31;6074555;23;20172;-80
2023/11/03 03:47:43;;;;;;;1.33;0.97;;;;;;;9.50;100.00;96653.03;6099210;23;20183;-79
2023/11/03 03:50:13;;;;;;;1.47;0.97;;;;;;;9.45;100.00;96644.28;6097661;23;20160;-79
2023/11/03 03:52:42;;;;;;;1.67;0.90;;;;;;;9.40;100.00;96609.59;6099676;23;20216;-80
2023/11/03 03:55:18;;;;;;;0.63;0.63;;;;;;;9.32;100.00;96580.84;6100331;23;20149;-80
2023/11/03 03:57:50;;;;;;;1.30;0.40;;;;;;;9.25;100.00;96562.47;6101104;23;20188;-80
2023/11/03 04:00:24;;;;;;;0.60;0.60;;;;;;;9.17;100.00;96576.44;6099641;23;20165;-80
2023/11/03 04:02:57;;;;;;;0.83;0.50;;;;;;;9.07;100.00;96587.25;6101367;23;20163;-80
2023/11/03 04:05:26;;;;;;;1.17;0.43;;;;;;;8.99;100.00;96578.00;6098800;23;20175;-80
2023/11/03 04:07:54;;;;;;;0.97;0.53;;;;;;;8.95;100.00;96544.91;6100460;23;20169;-80
2023/11/03 04:10:24;;;;;;;0.63;0.40;;;;;;;8.83;100.00;96531.16;6123459;23;20207;-80
2023/11/03 04:13:04;;;;;;;1.00;0.80;;;;;;;8.80;100.00;96521.84;6100239;23;20212;-80
2023/11/03 04:15:35;;;;;;;0.80;0.47;;;;;;;8.72;100.00;96524.34;6099782;23;20238;-80
2023/11/03 04:18:07;;;;;;;0.37;0.30;;;;;;;8.65;100.00;96539.88;6099174;23;20231;-80
2023/11/03 04:20:38;;;;;;;0.53;0.30;;;;;;;8.67;100.00;96535.88;6100218;23;20204;-80
2023/11/03 04:23:09;;;;;;;0.30;0.30;;;;;;;8.68;100.00;96533.97;6099806;23;20155;-80
2023/11/03 04:25:37;;;;;;;0.40;0.20;;;;;;;8.65;100.00;96538.00;6100046;23;20169;-79
2023/11/03 04:28:09;;;;;;;0.40;0.20;;;;;;;8.62;100.00;96529.78;6100624;23;20157;-80
2023/11/03 04:30:38;;;;;;;0.50;0.20;;;;;;;8.58;100.00;96534.09;6100653;23;20171;-80
2023/11/03 04:33:07;;;;;;;0.73;0.20;;;;;;;8.50;100.00;96554.16;6098689;23;20251;-80
2023/11/03 04:35:35;;;;;;;0.37;0.20;;;;;;;8.33;100.00;96554.56;6099680;23;20171;-80
2023/11/03 04:38:09;;;;;;;0.73;0.20;;;;;;;8.29;100.00;96542.88;6102857;23;20210;-79
2023/11/03 04:40:40;;;;;;;0.43;0.20;;;;;;;8.21;100.00;96524.75;6129178;23;20256;-80
2023/11/03 04:43:08;;;;;;;0.30;0.20;;;;;;;8.23;100.00;96511.94;6129718;23;20167;-79
2023/11/03 04:45:36;;;;;;;1.07;0.20;;;;;;;8.16;100.00;96510.69;6129140;23;20164;-79
2023/11/03 04:48:08;;;;;;;0.67;0.27;;;;;;;8.09;100.00;96503.00;6128896;23;20156;-80
2023/11/03 04:50:40;;;;;;;0.20;0.20;;;;;;;8.07;100.00;96510.47;6129375;23;20638;-80
2023/11/03 04:53:13;;;;;;;0.20;0.10;;;;;;;8.07;100.00;96512.38;6105127;23;20158;-80
2023/11/03 04:55:44;;;;;;;0.30;0.10;;;;;;;7.97;100.00;96524.69;6127937;23;20167;-80
2023/11/03 04:58:15;;;;;;;0.40;0.10;;;;;;;7.94;100.00;96519.91;6127347;23;20195;-79
2023/11/03 05:00:45;;;;;;;0.60;0.20;;;;;;;7.95;100.00;96518.03;6128719;23;20690;-79
2023/11/03 05:03:13;;;;;;;0.30;0.30;;;;;;;7.97;100.00;96522.03;6128810;23;20166;-80
2023/11/03 05:05:45;;;;;;;0.30;0.30;;;;;;;7.98;100.00;96534.25;6103397;23;20175;-79
2023/11/03 05:08:16;;;;;;;0.50;0.30;;;;;;;7.98;100.00;96531.59;6103551;23;20178;-80
2023/11/03 05:10:48;;;;;;;0.67;0.40;;;;;;;8.03;100.00;96535.28;6129000;23;20156;-79
2023/11/03 05:13:19;;;;;;;0.20;0.20;;;;;;;8.07;100.00;96547.78;6129647;23;20611;-80
2023/11/03 05:15:50;;;;;;;0.33;0.20;;;;;;;8.13;100.00;96546.69;6129320;23;20153;-80
2023/11/03 05:18:18;;;;;;;0.80;0.30;;;;;;;8.15;100.00;96539.22;6128866;23;20184;-79
2023/11/03 05:20:51;;;;;;;0.43;0.20;;;;;;;8.13;100.00;96519.22;6104755;23;20156;-80
2023/11/03 05:23:22;;;;;;;0.40;0.20;;;;;;;8.12;100.00;96518.44;6130513;23;20188;-80
2023/11/03 05:25:51;;;;;;;0.97;0.40;;;;;;;8.13;100.00;96516.56;6124333;23;20164;-79
2023/11/03 05:28:23;;;;;;;0.83;0.27;;;;;;;8.10;100.00;96509.94;6131899;23;20148;-79
2023/11/03 05:30:54;;;;;;;0.53;0.33;;;;;;;8.11;100.00;96514.19;6130590;23;20156;-80
2023/11/03 05:33:25;;;;;;;1.17;0.50;;;;;;;8.12;100.00;96499.75;6131341;23;20141;-80
2023/11/03 05:35:57;;;;;;;1.50;0.50;;;;;;;8.05;100.00;96493.97;6131037;23;20171;-80
2023/11/03 05:38:33;;;;;;;1.10;0.40;;;;;;;8.01;100.00;96498.28;6130901;23;20200;-79
2023/11/03 05:41:02;;;;;;;0.60;0.50;;;;;;;8.03;100.00;96503.31;6131180;23;20167;-80
2023/11/03 05:43:33;;;;;;;0.60;0.60;;;;;;;8.09;100.00;96510.19;6130964;23;20234;-79
2023/11/03 05:46:02;;;;;;;1.23;1.00;;;;;;;8.14;100.00;96513.63;6106000;23;20179;-80
2023/11/03 05:48:37;;;;;;;1.70;0.80;;;;;;;8.18;100.00;96519.19;6128730;23;20192;-79
2023/11/03 05:51:07;;;;;;;0.60;0.60;;;;;;;8.21;100.00;96529.31;6130736;23;20186;-79
2023/11/03 05:53:36;;;;;;;0.93;0.80;;;;;;;8.24;100.00;96529.53;6130942;23;20614;-80
2023/11/03 05:56:05;;;;;;;0.40;0.40;;;;;;;8.26;100.00;96530.03;6130788;23;20235;-80
2023/11/03 05:58:38;;;;;;;1.53;0.70;;;;;;;8.27;100.00;96536.19;6105574;23;20188;-80
2023/11/03 06:01:07;;;;;;;0.80;0.60;;;;;;;8.30;100.00;96538.34;6130811;23;20250;-80
2023/11/03 06:03:35;;;;;;;0.63;0.60;;;;;;;8.30;100.00;96535.66;6104918;23;20610;-79
2023/11/03 06:06:09;;;;;;;1.37;0.80;;;;;;;8.32;100.00;96539.63;6130681;23;20148;-79
2023/11/03 06:08:38;;;;;;;1.03;0.60;;;;;;;8.32;100.00;96538.84;6130759;23;20148;-80
2023/11/03 06:11:08;;;;;;;1.67;1.10;;;;;;;8.30;100.00;96528.47;6104681;23;20172;-79
2023/11/03 06:13:37;;;;;;;1.03;0.93;;;;;;;8.27;100.00;96522.84;6131228;23;20163;-80
2023/11/03 06:16:07;;;;;;;1.57;1.00;;;;;;;8.21;100.00;96502.66;6107242;23;20171;-80
2023/11/03 06:18:35;;;;;;;2.33;1.20;;;;;;;8.18;100.00;96490.66;6132904;23;20179;-80
2023/11/03 06:21:08;;;;;;;7.43;3.77;;;;;;;8.17;100.00;96483.72;6106444;23;20160;-80
2023/11/03 06:23:39;;;;;;;4.07;2.73;;;;;;;8.20;100.00;96496.50;6130354;23;20148;-80
2023/11/03 06:26:09;;;;;;;3.17;2.07;;;;;;;8.15;100.00;96485.88;6132059;23;20622;-80
2023/11/03 06:28:42;;;;;;;2.80;1.60;;;;;;;8.21;100.00;96492.75;6106470;23;20175;-80
2023/11/03 06:31:11;;;;;;;2.73;1.83;;;;;;;8.25;100.00;96507.16;6105449;23;20622;-80
2023/11/03 06:33:44;;;;;;;2.47;1.90;;;;;;;8.27;100.00;96512.97;6131387;23;20160;-80
2023/11/03 06:36:17;;;;;;;3.13;2.10;;;;;;;8.25;100.00;96493.00;6131531;23;20152;-80
2023/11/03 06:38:49;;;;;;;2.67;1.73;;;;;;;8.22;100.00;96470.34;6130066;23;20255;-80
2023/11/03 06:41:20;;;;;;;2.83;2.00;;;;;;;8.18;100.00;96457.84;6131091;23;20177;-80
2023/11/03 06:43:54;;;;;;;2.67;1.80;;;;;;;8.13;100.00;96445.38;6131830;23;20148;-80
2023/11/03 06:46:24;;;;;;;2.17;1.77;;;;;;;8.13;100.00;96437.38;6131185;23;20235;-79
2023/11/03 06:48:54;;;;;;;3.47;2.30;;;;;;;8.09;100.00;96428.34;6130762;23;20215;-79
2023/11/03 06:51:25;;;;;;;2.73;2.17;;;;;;;8.10;100.00;96405.94;6131036;23;20164;-80
2023/11/03 06:53:59;;;;;;;3.07;2.20;;;;;;;8.06;100.00;96375.59;6130783;23;20215;-80
2023/11/03 06:56:34;;;;;;;2.13;1.93;;;;;;;8.05;100.00;96382.00;6107836;23;20175;-80
2023/11/03 06:59:06;;;;;;;2.23;1.53;;;;;;;8.06;100.00;96390.78;6130558;23;20246;-80
2023/11/03 07:01:35;;;;;;;2.67;1.70;;;;;;;8.03;100.00;96396.66;6131663;23;20172;-80
2023/11/03 07:04:09;;;;;;;1.67;1.20;;;;;;;8.05;100.00;96413.19;6130964;23;20219;-80
2023/11/03 07:06:39;;;;;;;2.20;1.43;;;;;;;8.07;100.00;96413.72;6106288;23;20192;-80
2023/11/03 07:09:09;;;;;;;2.33;1.80;;;;;;;8.04;100.00;96398.25;6106196;23;20175;-80
2023/11/03 07:11:41;;;;;;;1.83;1.40;;;;;;;8.02;100.00;96413.75;6133596;23;20650;-80
2023/11/03 07:14:11;;;;;;;2.90;1.90;;;;;;;7.98;100.00;96419.63;6132913;23;20144;-80
2023/11/03 07:16:42;;;;;;;2.10;1.90;;;;;;;8.01;100.00;96420.16;6132160;23;20176;-80
2023/11/03 07:19:09;;;;;;;1.73;1.63;;;;;;;8.02;100.00;96411.09;6133881;23;20180;-80
2023/11/03 07:21:37;;;;;;;2.37;1.40;;;;;;;8.02;100.00;96400.44;6132119;23;20160;-79
2023/11/03 07:24:05;;;;;;;2.70;1.77;;;;;;;8.03;100.00;96408.13;6107611;23;20183;-80
2023/11/03 07:26:34;;;;;;;2.00;1.80;;;;;;;8.06;100.00;96422.78;6131455;23;20251;-80
2023/11/03 07:29:03;;;;;;;2.60;2.40;;;;;;;8.11;100.00;96439.53;6130941;23;20168;-80
2023/11/03 07:31:33;;;;;;;3.63;3.13;;;;;;;8.14;100.00;96452.28;6129234;23;20229;-79
2023/11/03 07:34:03;;;;;;;4.83;4.40;;;;;;;8.20;100.00;96469.03;6129951;23;20167;-79
2023/11/03 07:36:31;;;;;;;5.10;4.60;;;;;;;8.23;100.00;96455.94;6129700;23;20166;-79
2023/11/03 07:39:02;;;;;;;4.60;4.17;;;;;;;8.23;100.00;96453.28;6132221;23;20211;-80
2023/11/03 07:41:36;;;;;;;3.70;3.37;;;;;;;8.27;100.00;96451.63;6130145;23;20583;-79
2023/11/03 07:44:06;;;;;;;3.03;2.20;;;;;;;8.27;100.00;96446.28;6081856;23;20199;-80
2023/11/03 07:46:38;;;;;;;3.30;1.73;;;;;;;8.25;100.00;96456.47;6105096;23;20156;-79
2023/11/03 07:49:09;;;;;;;1.57;1.47;;;;;;;8.26;100.00;96446.56;6103541;23;20210;-80
2023/11/03 07:51:40;;;;;;;1.10;0.97;;;;;;;8.33;100.00;96449.75;6129807;23;20159;-80
2023/11/03 07:54:15;;;;;;;1.10;0.83;;;;;;;8.25;100.00;96440.47;6129035;23;20218;-79
2023/11/03 07:56:43;;;;;;;1.33;0.70;;;;;;;8.21;100.00;96450.06;6129396;23;20159;-79
2023/11/03 07:59:11;;;;;;;1.47;0.63;;;;;;;8.21;100.00;96444.75;6129023;23;20186;-79
2023/11/03 08:02:06;;;;;;;1.10;0.73;;;;;;;8.16;100.00;96433.34;6113880;23;20167;-80
2023/11/03 08:04:33;;;;;;;0.60;0.50;;;;;;;8.17;100.00;96427.72;6129136;23;20332;-80
2023/11/03 08:07:00;;;;;;;1.47;0.60;;;;;;;8.20;100.00;96413.03;6128971;23;20167;-80
2023/11/03 08:09:30;;;;;;;0.63;0.60;;;;;;;8.19;100.00;96401.59;6129212;23;20164;-80
2023/11/03 08:11:59;;;;;;;1.10;0.70;;;;;;;8.17;100.00;96397.59;6127472;23;20250;-80
2023/11/03 08:14:29;;;;;;;1.10;0.70;;;;;;;8.17;100.00;96392.25;6128933;23;20219;-80
2023/11/03 08:17:05;;;;;;;1.13;0.67;;;;;;;8.18;100.00;96389.31;6130349;23;20152;-80
2023/11/03 08:19:34;;;;;;;2.33;1.00;;;;;;;8.17;100.00;96392.25;6129945;23;20147;-80
2023/11/03 08:22:01;;;;;;;0.90;0.60;;;;;;;8.22;100.00;96419.69;6104118;23;20172;-80
2023/11/03 08:24:31;;;;;;;1.83;1.37;;;;;;;8.22;100.00;96441.00;6128491;23;20622;-79
2023/11/03 08:26:59;;;;;;;1.60;1.40;;;;;;;8.24;100.00;96443.41;6079905;23;20168;-79
2023/11/03 08:29:27;;;;;;;1.80;1.57;;;;;;;8.23;100.00;96413.28;6104043;23;20187;-80
2023/11/03 08:31:58;;;;;;;1.73;1.20;;;;;;;8.28;100.00;96381.22;6102940;23;20159;-79
2023/11/03 08:34:29;;;;;;;1.00;1.00;;;;;;;8.18;100.00;96338.66;6129678;23;20154;-80
2023/11/03 08:36:59;;;;;;;1.30;1.20;;;;;;;8.09;100.00;96299.56;6127888;23;20602;-79
2023/11/03 08:39:27;;;;;;;1.67;1.40;;;;;;;8.24;100.00;96278.06;6121739;23;20677;-80
2023/11/03 08:42:01;;;;;;;2.80;1.60;;;;;;;8.40;100.00;96226.91;6098780;23;20164;-80
2023/11/03 08:44:31;;;;;;;2.47;1.70;;;;;;;8.55;100.00;96209.09;6099264;23;20164;-80
2023/11/03 08:47:02;;;;;;;2.37;1.80;;;;;;;8.65;100.00;96203.63;6099907;23;20164;-79
2023/11/03 08:49:30;;;;;;;2.13;1.80;;;;;;;8.19;100.00;96139.44;6099322;23;20184;-79
2023/11/03 08:52:02;;;;;;;1.67;1.40;;;;;;;7.88;100.00;96153.22;6100089;23;20187;-79
2023/11/03 08:54:33;;;;;;;2.63;1.87;;;;;;;8.11;100.00;96289.41;6099034;23;20168;-79
2023/11/03 08:57:05;;;;;;;2.53;2.17;;;;;;;8.27;100.00;96352.94;6100601;23;20168;-79
2023/11/03 08:59:39;;;;;;;2.80;2.50;;;;;;;8.34;100.00;96408.66;6101032;23;20198;-79
2023/11/03 09:02:13;;;;;;;2.83;2.63;;;;;;;8.33;100.00;96407.88;6100785;23;20223;-79
2023/11/03 09:04:43;;;;;;;2.47;2.17;;;;;;;8.37;100.00;96424.09;6100508;23;20168;-79
2023/11/03 09:07:14;;;;;;;2.77;2.20;;;;;;;8.43;100.00;96400.84;6100505;23;20587;-79
2023/11/03 09:09:41;;;;;;;2.40;2.20;;;;;;;8.49;100.00;96413.81;6100076;23;20172;-79
2023/11/03 09:12:13;;;;;;;2.20;2.00;;;;;;;8.55;100.00;96402.00;6100035;23;20235;-79
2023/11/03 09:14:40;;;;;;;3.73;2.23;;;;;;;8.59;100.00;96411.03;6099997;23;20188;-79
2023/11/03 09:17:10;;;;;;;2.87;2.30;;;;;;;8.64;100.00;96402.19;6100021;23;20164;-79
2023/11/03 09:19:38;;;;;;;2.47;2.20;;;;;;;8.67;100.00;96388.28;6098473;23;20235;-79
2023/11/03 09:22:05;;;;;;;1.90;1.80;;;;;;;8.70;100.00;96417.84;6099880;23;20204;-79
2023/11/03 09:24:33;;;;;;;2.90;2.60;;;;;;;8.70;100.00;96436.53;6099305;23;20173;-78
2023/11/03 09:27:01;;;;;;;2.27;2.07;;;;;;;8.72;100.00;96438.94;6098074;23;20165;-79
2023/11/03 09:29:37;;;;;;;2.10;2.00;;;;;;;8.74;100.00;96428.75;6100082;23;20318;-79
2023/11/03 09:32:06;;;;;;;2.10;1.90;;;;;;;8.72;100.00;96437.06;6099939;23;20190;-79
2023/11/03 09:34:34;;;;;;;2.20;2.00;;;;;;;8.75;100.00;96443.69;6099440;23;20171;-79
2023/11/03 09:37:03;;;;;;;2.77;2.20;;;;;;;8.77;100.00;96441.53;6098485;23;20168;-79
2023/11/03 09:39:39;;;;;;;2.50;2.30;;;;;;;8.79;100.00;96420.69;6125202;23;20200;-79
2023/11/03 09:42:10;;;;;;;2.80;2.43;;;;;;;8.83;100.00;96416.38;6103081;23;20160;-79
2023/11/03 09:44:40;;;;;;;2.53;2.33;;;;;;;8.83;100.00;96419.81;6104054;23;20148;-79
2023/11/03 09:47:14;;;;;;;2.53;2.33;;;;;;;8.86;100.00;96396.31;6129362;23;20231;-79
2023/11/03 09:49:43;;;;;;;2.00;1.80;;;;;;;8.89;100.00;96393.06;6128658;23;20541;-79
2023/11/03 09:52:13;;;;;;;2.20;1.73;;;;;;;8.95;100.00;96411.41;6127876;23;20230;-79
2023/11/03 09:54:45;;;;;;;1.80;1.70;;;;;;;9.03;100.00;96407.31;6103711;23;20242;-79
2023/11/03 09:57:15;;;;;;;1.23;1.13;;;;;;;9.07;100.00;96398.44;6080111;23;20171;-79
2023/11/03 09:59:45;;;;;;;1.20;1.00;;;;;;;9.17;100.00;96386.81;6129472;23;20191;-79
2023/11/03 10:02:20;;;;;;;0.83;0.83;;;;;;;9.23;100.00;96391.81;6129622;23;20160;-79
2023/11/03 10:04:50;;;;;;;0.70;0.70;;;;;;;9.19;100.00;96384.66;6130068;23;20163;-79
2023/11/03 10:07:18;;;;;;;0.50;0.50;;;;;;;9.23;100.00;96375.78;6129637;23;20191;-79
2023/11/03 10:09:47;;;;;;;0.60;0.20;;;;;;;9.20;100.00;96379.00;6129291;23;20242;-79
2023/11/03 10:12:25;;;;;;;0.30;0.30;;;;;;;9.32;100.00;96383.13;6129462;23;20168;-79
2023/11/03 10:14:53;;;;;;;0.70;0.47;;;;;;;9.14;100.00;96384.72;6129153;23;20190;-79
2023/11/03 10:17:24;;;;;;;3.00;1.57;;;;;;;9.18;100.00;96375.06;6128539;23;20199;-79
2023/11/03 10:19:53;;;;;;;0.90;0.73;;;;;;;9.29;100.00;96374.59;6129197;23;20649;-79
2023/11/03 10:22:25;;;;;;;0.43;0.40;;;;;;;9.23;100.00;96369.66;6104001;23;20171;-79
2023/11/03 10:25:08;;;;;;;0.30;0.30;;;;;;;9.26;100.00;96343.13;6130184;23;20219;-80
2023/11/03 10:27:36;;;;;;;0.30;0.23;;;;;;;9.26;100.00;96348.47;6104076;23;20156;-79
2023/11/03 10:30:06;;;;;;;0.33;0.30;;;;;;;9.27;100.00;96386.69;6129158;23;20199;-79
2023/11/03 10:32:41;;;;;;;0.70;0.20;;;;;;;9.34;100.00;96397.78;6129638;23;20178;-79
2023/11/03 10:35:13;;;;;;;0.83;0.70;;;;;;;9.16;100.00;96401.25;6129044;23;20178;-79
2023/11/03 10:37:46;;;;;;;0.57;0.57;;;;;;;9.10;100.00;96403.19;6129378;23;20163;-79
2023/11/03 10:40:15;;;;;;;0.20;0.20;;;;;;;8.99;100.00;96408.97;6129004;23;20160;-79
2023/11/03 10:42:51;;;;;;;0.20;0.20;;;;;;;8.97;100.00;96387.09;6129460;23;20164;-79
2023/11/03 10:45:30;;;;;;;0.20;0.20;;;;;;;8.95;100.00;96408.75;6129511;23;20629;-79
2023/11/03 10:48:13;;;;;;;0.30;0.20;;;;;;;8.76;100.00;96400.72;6129645;23;20199;-79
2023/11/03 10:50:54;;;;;;;0.87;0.23;;;;;;;8.80;100.00;96403.59;6104519;23;20226;-79
2023/11/03 10:53:47;;;;;;;0.33;0.20;;;;;;;8.78;100.00;96403.06;6103163;23;20163;-79
2023/11/03 10:56:23;;;;;;;0.30;0.30;;;;;;;8.78;100.00;96408.41;6129155;23;20251;-79
2023/11/03 10:59:11;;;;;;;0.30;0.10;;;;;;;9.04;100.00;96383.00;6128959;23;20243;-79
2023/11/03 11:01:54;;;;;;;0.20;0.20;;;;;;;9.18;100.00;96369.72;6128417;23;20594;-79
2023/11/03 11:04:48;;;;;;;0.33;0.20;;;;;;;9.12;100.00;96401.03;6102738;23;20175;-79
2023/11/03 11:07:19;;;;;;;0.20;0.20;;;;;;;8.84;100.00;96417.97;6102888;23;20168;-79
2023/11/03 11:09:52;;;;;;;0.30;0.30;;;;;;;8.82;100.00;96420.91;6103591;23;20222;-79
2023/11/03 11:12:49;;;;;;;0.20;0.20;;;;;;;8.66;100.00;96434.72;6128621;23;20152;-79
2023/11/03 11:15:25;;;;;;;0.23;0.23;;;;;;;8.65;100.00;96433.13;6103269;23;20179;-79
2023/11/03 11:17:54;;;;;;;0.10;0.10;;;;;;;8.64;100.00;96442.22;6102781;23;20171;-79
2023/11/03 11:20:28;;;;;;;0.20;0.20;;;;;;;8.66;100.00;96453.41;6102973;23;20610;-79
2023/11/03 11:23:07;;;;;;;0.20;0.20;;;;;;;8.64;100.00;96436.88;6081287;23;20168;-79
2023/11/03 11:25:36;;;;;;;1.23;0.20;;;;;;;8.76;100.00;96451.44;6103312;23;20164;-79
2023/11/03 11:28:41;;;;;;;1.43;0.30;;;;;;;8.81;100.00;96448.69;6103746;23;20164;-79
2023/11/03 11:31:25;;;;;;;0.23;0.23;;;;;;;8.63;100.00;96441.41;6127987;23;20163;-80
2023/11/03 11:34:10;;;;;;;0.30;0.30;;;;;;;8.57;100.00;96437.22;6128448;23;20629;-79
2023/11/03 11:36:39;;;;;;;0.60;0.60;;;;;;;8.56;100.00;96443.63;6128697;23;20219;-79
2023/11/03 11:39:13;;;;;;;0.30;0.30;;;;;;;8.71;100.00;96448.81;6128082;23;20672;-79
2023/11/03 11:42:10;;;;;;;0.63;0.63;;;;;;;8.75;100.00;96446.34;6128337;23;20151;-79
2023/11/03 11:44:39;;;;;;;1.10;1.10;;;;;;;8.90;100.00;96448.06;6083160;23;20179;-79
2023/11/03 11:47:07;;;;;;;2.67;2.47;;;;;;;8.91;100.00;96449.66;6102097;23;20180;-79
2023/11/03 11:49:35;;;;;;;2.63;2.43;;;;;;;8.74;100.00;96447.44;6128417;23;20199;-79
2023/11/03 11:52:09;;;;;;;4.43;4.13;;;;;;;8.58;100.00;96456.72;6129160;23;20152;-80
2023/11/03 11:54:38;;;;;;;3.50;3.30;;;;;;;8.61;100.00;96475.59;6128080;23;20167;-80
2023/11/03 11:57:10;;;;;;;0.30;0.30;;;;;;;8.52;100.00;96492.50;6130151;23;20156;-80
2023/11/03 11:59:45;;;;;;;1.40;1.30;;;;;;;8.53;100.00;96500.25;6129544;23;20191;-79
2023/11/03 12:02:13;;;;;;;0.80;0.80;;;;;;;8.48;100.00;96502.97;6129966;23;20151;-80
2023/11/03 12:04:41;;;;;;;1.20;1.10;;;;;;;8.46;100.00;96497.09;6130503;23;20164;-80